ADDS METAR Data INFO
IDs: Format: Raw Decoded Include TAF

Data at: 1807 UTC 18 Feb 2018

KVLD 181753Z 00000KT 10SM FU FEW034 23/17 A3024 RMK AO2 SLP246 T02330167 10250 20167 58003
KVLD 181723Z 00000KT 10SM FU BKN032 23/17 A3025 RMK AO2 T02330167
KVLD 181653Z VRB03KT 10SM FU OVC028 23/17 A3026 RMK AO2 SLP252 T02330172
KVLD 181642Z VRB03KT 10SM FU BKN027 23/18 A3026 RMK AO2 T02330178
KVLD 181620Z 00000KT 10SM FU SCT021 23/18 A3026 RMK AO2 T02280178
KVLD 181553Z 00000KT 10SM FU OVC018 22/18 A3026 RMK AO2 SLP254 T02220178
KVLD 181535Z VRB04KT 10SM FU OVC016 22/18 A3026 RMK AO2 T02220178
KVLD 181453Z 00000KT 10SM FU OVC012 21/18 A3025 RMK AO2 SLP249 T02110178 51010
KVLD 181353Z 00000KT 10SM FU SCT004 BKN014 19/18 A3023 RMK AO2 SLP245 T01940183
KVLD 181348Z 00000KT 10SM FU SCT004 BKN014 19/18 A3023 RMK AO2
KVLD 181300Z 00000KT 10SM FU BKN004 19/18 A3022 RMK AO2 T01890178
KVLD 181253Z 00000KT 8SM FU SCT004 18/18 A3022 RMK AO2 SLP239 T01830178
KVLD 181246Z 00000KT 7SM FU SCT004 18/18 A3021 RMK AO2 T01780178
KVLD 181236Z 20003KT 5SM BR FU BKN005 17/17 A3021 RMK AO2 T01670167
KVLD 181222Z 19003KT 4SM BR FU FEW005 SCT017 17/16 A3021 RMK AO2 T01670161
KVLD 181213Z 18004KT 6SM BR FU SCT017 17/17 A3021 RMK AO2 T01670167
KVLD 181153Z 19003KT 10SM FU BKN017 18/17 A3020 RMK AO2 SLP234 T01780172 10189 20178 53008
KVLD 181142Z 19003KT 10SM FU OVC016 18/18 A3020 RMK AO2 T01830178
KVLD 181053Z AUTO 21003KT 10SM FU OVC014 18/17 A3019 RMK AO2 SLP229 T01780172
KVLD 181051Z AUTO 21003KT 10SM FU OVC014 18/17 A3019 RMK AO2
KVLD 181022Z AUTO 00000KT 10SM FU OVC015 18/18 A3018 RMK AO2 T01780178
KVLD 180953Z AUTO 00000KT 10SM FU OVC013 18/17 A3018 RMK AO2 SLP226 T01780172
KVLD 180853Z AUTO 20003KT 10SM FU OVC011 18/17 A3016 RMK AO2 SLP221 T01830172 54000
KVLD 180833Z AUTO 21003KT 10SM FU OVC011 18/17 A3016 RMK AO2 T01830172
KVLD 180753Z AUTO 21004KT 10SM FU OVC009 18/17 A3016 RMK AO2 SLP220 T01830172
KVLD 180653Z AUTO VRB05KT 10SM FU OVC008 18/17 A3016 RMK AO2 SLP221 T01830172
KVLD 180553Z AUTO 21005KT 10SM FU OVC006 18/18 A3016 RMK AO2 SLP221 T01830178 10222 20178 56005
KVLD 180453Z AUTO 20007KT 10SM FU OVC005 18/18 A3017 RMK AO2 SLP222 T01830178 402610144
KVLD 180419Z AUTO 22003KT 9SM FU BKN006 18/17 A3017 RMK AO2 T01780172
KVLD 180404Z AUTO 00000KT 10SM FU FEW006 18/17 A3018 RMK AO2 T01780172
KVLD 180353Z AUTO 21004KT 10SM FU CLR 18/17 A3017 RMK AO2 SLP223 T01780172
KVLD 180253Z 20005KT 10SM FU CLR 18/16 A3018 RMK AO2 SLP226 T01830161 53012
KVLD 180153Z 20004KT 10SM FU CLR 19/14 A3016 RMK AO2 SLP220 T01940144
KVLD 180053Z 20004KT 10SM FU CLR 21/15 A3015 RMK AO2 SLP218 T02060150
KVLD 172353Z 20005KT 10SM FU FEW050 FEW065 22/15 A3014 RMK AO2 SLP214 T02220150 10261 20217 53004
KVLD 172253Z VRB05KT 10SM FU FEW050 SCT070 24/16 A3014 RMK AO2 SLP213 T02390161
KVLD 172153Z 25004KT 10SM FU FEW047 SCT070 26/16 A3013 RMK AO2 SLP209 T02560161
KVLD 172053Z VRB04KT 10SM FU FEW039 SCT047 BKN060 26/17 A3013 RMK AO2 SLP210 T02560167 56016
KVLD 171953Z 26005KT 10SM FU SCT035 BKN049 25/17 A3014 RMK AO2 SLP211 T02500167
KVLD 171853Z VRB03KT 8SM FU SCT030 BKN037 BKN050 23/17 A3015 RMK AO2 SLP217 T02330172
KVLD 171836Z VRB04KT 8SM FU FEW019 SCT027 SCT033 24/18 A3016 RMK AO2 T02440178
KVLD 171827Z VRB03KT 8SM FEW019 BKN027 BKN033 24/18 A3016 RMK AO2 T02390178
KVLD 171810Z VRB03KT 8SM SCT019 SCT025 OVC031 23/18 A3017 RMK AO2 T02330178
KVLD 171753Z VRB05KT 5SM HZ BKN019 OVC029 22/18 A3018 RMK AO2 SLP226 T02220178 10222 20167 58005
KVLD 171742Z 25005KT 10SM SCT013 OVC021 22/17 A3018 RMK AO2 T02220172
KVLD 171702Z VRB05KT 10SM MIFG BKN010 OVC013 20/17 A3019 RMK AO2 CIG 007V012 T02000172
KVLD 171653Z 19008KT 10SM MIFG OVC008 19/17 A3019 RMK AO2 CIG 006V012 SLP229 T01940172
KVLD 171622Z 21005KT 9SM MIFG OVC005 18/17 A3019 RMK AO2 T01830172
KVLD 171553Z 18007KT 3SM MIFG OVC004 17/17 A3019 RMK AO2 SLP232 T01720172
KVLD 171530Z 16007KT 3SM MIFG OVC004 17/17 A3019 RMK AO2 T01720172
KVLD 171515Z 17007KT 2SM MIFG OVC003 17/17 A3019 RMK AO2 T01720172
KVLD 171506Z 20006KT 1 1/2SM MIFG OVC002 17/17 A3019 RMK AO2 CIG 002V007 T01720172
KVLD 171459Z 19006KT 3SM MIFG OVC002 17/17 A3019 RMK AO2 T01720167
KVLD 171453Z 21005KT 1 1/2SM MIFG OVC002 17/17 A3019 RMK AO2 SLP231 T01720172 53008
KVLD 171443Z 16006KT 1 1/2SM MIFG OVC002 17/17 A3019 RMK AO2 T01720167
KVLD 171434Z 17006KT 2SM MIFG OVC002 17/17 A3019 RMK AO2 T01670167
KVLD 171353Z 16007KT 1/2SM MIFG OVC002 17/17 A3018 RMK AO2 SLP227 T01670167
KVLD 171253Z 19004KT 1/2SM MIFG OVC002 17/17 A3017 RMK AO2 SLP225 T01670167
KVLD 171153Z 00000KT 1/2SM MIFG VV002 17/17 A3017 RMK AO2 SLP223 T01670167 10167 20144 53009
KVLD 171053Z AUTO 00000KT 3/4SM MIFG VV002 17/17 A3015 RMK AO2 SLP218 T01670167
KVLD 170953Z AUTO 19003KT 1/2SM MIFG VV002 17/17 A3015 RMK AO2 SLP215 T01670167
KVLD 170853Z AUTO 00000KT 1/2SM MIFG VV002 17/17 A3014 RMK AO2 SLP213 T01670167 53000
KVLD 170834Z AUTO 18004KT 1/4SM MIFG VV002 17/17 A3014 RMK AO2 T01670167
KVLD 170753Z AUTO 20003KT 1/2SM MIFG VV002 17/17 A3014 RMK AO2 SLP211 T01670167
KVLD 170653Z AUTO 18004KT 3/4SM MIFG OVC002 16/16 A3014 RMK AO2 SLP213 T01610161
KVLD 170641Z AUTO 20005KT 1SM MIFG OVC003 16/16 A3014 RMK AO2 T01610161
KVLD 170611Z AUTO 19003KT 1/4SM MIFG VV004 15/15 A3014 RMK AO2 T01500150